KSSC/SSC METAR and TAF weather

Enter ICAO airport designator
Station Type Date Time Source
KSSC METAR 2022/10/01 06:55 UTC NOAA

KSSC 010655Z 23006KT 10SM BKN009 OVC014 14/13 A2970 RMK AO2A SLP057 P0001 $


Station Type Date Time Source
KSSC Decoded METAR 2022/10/01 06:55 UTC NOAA

Shaw Air Force Base, SC, United States (KSSC) 33-58N 080-29W 73M
Oct 01, 2022 - 02:55 AM EDT / 2022.10.01 0655 UTC
Wind: from the SW (230 degrees) at 7 MPH (6 KT):0
Visibility: 10 mile(s):0
Sky conditions: overcast
Precipitation last hour: 0.01 inches
Temperature: 57 F (14 C)
Dew Point: 55 F (13 C)
Relative Humidity: 93%
Pressure (altimeter): 29.7 in. Hg (1005 hPa)
ob: KSSC 010655Z 23006KT 10SM BKN009 OVC014 14/13 A2970 RMK AO2A SLP057 P0001
cycle: 7

Station Type Date Time Source
KSSC TAF 2022/10/01 07:03 UTC NOAA

TAF KSSC 010700Z 0107/0213 23009KT 9999 OVC010 QNH2965INS
BECMG 0110/0111 26006KT 6000 BR BKN007 OVC015 QNH2971INS
BECMG 0113/0114 22010KT 9999 NSW BKN010 OVC030 QNH2978INS
BECMG 0115/0116 22010G15KT 9999 SCT010 BKN040 QNH2979INS
BECMG 0121/0122 29009KT 9999 BKN060 QNH2979INS
BECMG 0207/0208 34006KT 9999 SCT100 QNH2986INS TX22/0121Z TN13/0109Z LAST NO
AMDS AFT 0107 NEXT 0115

Example: see airport list